Time;durP1;ratioP1;P1;durP2;ratioP2;P2;SDS_P1;SDS_P2;PMS_P1;PMS_P2;Temp;Humidity;BMP_temperature;BMP_pressure;BME280_temperature;BME280_humidity;BME280_pressure;Samples;Min_cycle;Max_cycle;Signal;HPM_P1;HPM_P2
2023/12/30 00:01:20;;;;;;;1.47;1.37;;;;;;;9.04;100.00;97981.00;5093485;28;20208;-74
2023/12/30 00:03:47;;;;;;;1.97;1.30;;;;;;;9.14;100.00;97976.09;5093135;28;20200;-74
2023/12/30 00:06:15;;;;;;;1.47;1.37;;;;;;;9.15;100.00;97964.44;5093452;28;20199;-75
2023/12/30 00:08:42;;;;;;;4.37;1.37;;;;;;;9.14;100.00;97970.78;5093139;28;20214;-74
2023/12/30 00:11:10;;;;;;;2.13;1.53;;;;;;;9.21;100.00;97969.72;5092986;28;20231;-74
2023/12/30 00:13:40;;;;;;;1.50;1.40;;;;;;;9.14;100.00;97965.47;5093411;28;20290;-74
2023/12/30 00:16:08;;;;;;;1.40;1.30;;;;;;;9.16;100.00;97963.41;5093176;28;20204;-74
2023/12/30 00:18:36;;;;;;;2.47;1.30;;;;;;;9.22;100.00;97965.22;5093071;28;20573;-74
2023/12/30 00:21:03;;;;;;;1.37;1.23;;;;;;;9.20;100.00;97969.94;5093409;28;20310;-74
2023/12/30 00:23:30;;;;;;;1.83;1.33;;;;;;;9.32;100.00;97965.59;5093114;28;20667;-74
2023/12/30 00:25:56;;;;;;;1.30;1.20;;;;;;;9.32;100.00;97962.94;5093101;28;20212;-74
2023/12/30 00:28:22;;;;;;;1.43;1.33;;;;;;;9.31;100.00;97962.09;5093283;28;20213;-74
2023/12/30 00:30:49;;;;;;;1.40;1.30;;;;;;;9.39;100.00;97958.38;5093256;28;20215;-74
2023/12/30 00:33:15;;;;;;;1.50;1.27;;;;;;;9.32;100.00;97961.06;5093408;28;20200;-74
2023/12/30 00:35:41;;;;;;;1.50;1.40;;;;;;;9.36;100.00;97954.31;5093331;28;20200;-74
2023/12/30 00:38:08;;;;;;;1.17;1.07;;;;;;;9.38;100.00;97946.97;5094822;28;20211;-74
2023/12/30 00:40:34;;;;;;;2.00;1.40;;;;;;;9.46;100.00;97959.16;5097567;28;20228;-74
2023/12/30 00:43:00;;;;;;;2.03;1.30;;;;;;;9.48;100.00;97951.78;5097140;28;20204;-74
2023/12/30 00:45:27;;;;;;;1.70;1.40;;;;;;;9.48;100.00;97955.28;5097062;28;20562;-74
2023/12/30 00:47:53;;;;;;;1.47;1.37;;;;;;;9.58;100.00;97957.44;5096762;28;20294;-74
2023/12/30 00:50:19;;;;;;;2.20;1.33;;;;;;;9.60;100.00;97955.41;5097468;28;20220;-74
2023/12/30 00:52:46;;;;;;;1.77;1.40;;;;;;;9.60;100.00;97966.00;5097063;28;20208;-74
2023/12/30 00:55:12;;;;;;;1.30;1.20;;;;;;;9.56;100.00;97968.25;5096803;28;20203;-74
2023/12/30 00:57:38;;;;;;;1.40;1.30;;;;;;;9.57;100.00;97953.16;5096880;28;20210;-74
2023/12/30 01:00:06;;;;;;;2.73;1.33;;;;;;;9.61;100.00;97963.16;5096774;28;20238;-74
2023/12/30 01:02:32;;;;;;;1.30;1.10;;;;;;;9.51;100.00;97968.09;5096398;28;20670;-74
2023/12/30 01:04:59;;;;;;;1.40;1.30;;;;;;;9.35;100.00;97967.78;5096356;28;20659;-74
2023/12/30 01:07:25;;;;;;;1.60;1.00;;;;;;;9.42;100.00;97974.69;5096608;28;20210;-74
2023/12/30 01:09:51;;;;;;;2.10;1.23;;;;;;;9.36;100.00;97970.22;5096436;28;20223;-74
2023/12/30 01:12:18;;;;;;;2.40;1.30;;;;;;;9.28;100.00;97973.13;5096734;28;20211;-74
2023/12/30 01:14:45;;;;;;;1.50;1.40;;;;;;;9.39;100.00;97977.78;5096383;28;20210;-74
2023/12/30 01:17:11;;;;;;;2.60;1.30;;;;;;;9.31;100.00;97979.84;5096655;28;20219;-74
2023/12/30 01:19:38;;;;;;;2.43;1.47;;;;;;;9.29;100.00;97973.97;5096806;28;20263;-74
2023/12/30 01:22:04;;;;;;;1.83;1.40;;;;;;;9.28;100.00;97985.59;5096400;28;20207;-74
2023/12/30 01:24:30;;;;;;;1.33;1.23;;;;;;;9.21;100.00;97990.09;5096264;28;20200;-74
2023/12/30 01:26:57;;;;;;;1.97;1.60;;;;;;;9.25;100.00;97983.38;5096212;28;20208;-74
2023/12/30 01:29:23;;;;;;;1.70;1.43;;;;;;;9.22;100.00;97995.22;5096154;28;20215;-74
2023/12/30 01:31:50;;;;;;;2.53;1.80;;;;;;;9.16;100.00;98001.38;5096252;28;20208;-74
2023/12/30 01:34:16;;;;;;;1.60;1.43;;;;;;;9.16;100.00;98004.03;5096115;28;20203;-74
2023/12/30 01:36:42;;;;;;;1.57;1.40;;;;;;;9.12;100.00;98009.94;5095780;28;20214;-74
2023/12/30 01:39:09;;;;;;;1.93;1.40;;;;;;;9.09;100.00;98010.38;5095656;28;20224;-74
2023/12/30 01:41:35;;;;;;;2.53;1.30;;;;;;;8.96;100.00;98011.22;5096174;28;20214;-74
2023/12/30 01:44:01;;;;;;;1.57;1.30;;;;;;;8.91;100.00;98016.34;5095860;28;20211;-74
2023/12/30 01:46:28;;;;;;;1.80;1.50;;;;;;;8.78;100.00;98013.72;5095838;28;20200;-74
2023/12/30 01:48:54;;;;;;;2.70;1.73;;;;;;;8.70;100.00;98016.63;5094608;28;20212;-74
2023/12/30 01:51:21;;;;;;;1.80;1.70;;;;;;;8.63;100.00;98025.59;5095609;28;20196;-74
2023/12/30 01:53:47;;;;;;;3.07;1.70;;;;;;;8.65;100.00;98024.38;5095578;28;20214;-74
2023/12/30 01:56:16;;;;;;;2.10;1.90;;;;;;;8.55;100.00;98023.19;5095447;28;20686;-74
2023/12/30 01:58:43;;;;;;;2.43;1.87;;;;;;;8.60;100.00;98026.03;5095350;28;20209;-74
2023/12/30 02:01:11;;;;;;;3.70;1.90;;;;;;;8.52;100.00;98029.72;5095489;28;20224;-74
2023/12/30 02:03:37;;;;;;;2.97;1.60;;;;;;;8.53;100.00;98033.16;5095573;28;20576;-74
2023/12/30 02:06:04;;;;;;;2.37;1.60;;;;;;;8.43;100.00;98024.81;5095271;28;20200;-74
2023/12/30 02:08:30;;;;;;;2.63;1.70;;;;;;;8.45;100.00;98034.19;5095206;28;20213;-74
2023/12/30 02:10:56;;;;;;;2.23;1.40;;;;;;;8.40;100.00;98039.31;5095348;28;20220;-74
2023/12/30 02:13:23;;;;;;;2.20;1.67;;;;;;;8.35;100.00;98040.94;5095208;28;20204;-74
2023/12/30 02:15:49;;;;;;;1.90;1.40;;;;;;;8.37;100.00;98045.00;5095358;28;20212;-74
2023/12/30 02:18:16;;;;;;;1.97;1.60;;;;;;;8.33;100.00;98045.63;5095097;28;20207;-74
2023/12/30 02:20:42;;;;;;;2.30;1.50;;;;;;;8.38;100.00;98043.97;5095229;28;20223;-74
2023/12/30 02:23:08;;;;;;;4.10;1.70;;;;;;;8.38;100.00;98043.16;5095158;28;20208;-74
2023/12/30 02:25:35;;;;;;;2.17;1.40;;;;;;;8.45;100.00;98046.63;5095060;28;20207;-74
2023/12/30 02:28:01;;;;;;;3.47;1.60;;;;;;;8.45;100.00;98042.16;5095107;28;20203;-74
2023/12/30 02:30:27;;;;;;;1.83;1.60;;;;;;;8.42;100.00;98033.81;5094939;28;20219;-74
2023/12/30 02:32:58;;;;;;;1.87;1.37;;;;;;;8.40;100.00;98041.94;5094705;28;20689;-74
2023/12/30 02:35:24;;;;;;;1.47;1.33;;;;;;;8.51;100.00;98049.25;5094934;28;20218;-74
2023/12/30 02:37:51;;;;;;;2.10;1.50;;;;;;;8.47;100.00;98058.63;5094896;28;20208;-74
2023/12/30 02:40:17;;;;;;;2.50;1.23;;;;;;;8.44;100.00;98053.78;5094389;28;20702;-74
2023/12/30 02:42:43;;;;;;;1.50;1.40;;;;;;;8.45;100.00;98046.63;5094777;28;20217;-74
2023/12/30 02:45:10;;;;;;;2.90;1.60;;;;;;;8.33;100.00;98049.06;5094707;28;20203;-74
2023/12/30 02:47:37;;;;;;;1.53;1.40;;;;;;;8.27;100.00;98049.91;5094519;28;20211;-74
2023/12/30 02:50:03;;;;;;;3.33;1.60;;;;;;;8.27;100.00;98049.91;5094599;28;20224;-74
2023/12/30 02:52:30;;;;;;;2.43;1.63;;;;;;;8.23;100.00;98055.81;5094577;28;20230;-74
2023/12/30 02:54:56;;;;;;;2.77;1.60;;;;;;;8.27;100.00;98063.13;5094634;28;20203;-74
2023/12/30 02:57:25;;;;;;;1.70;1.60;;;;;;;8.20;100.00;98053.53;5094631;28;20207;-74
2023/12/30 02:59:51;;;;;;;2.00;1.77;;;;;;;8.14;100.00;98057.00;5094342;28;20228;-74
2023/12/30 03:02:18;;;;;;;2.60;2.00;;;;;;;8.09;100.00;98060.25;5094360;28;20234;-74
2023/12/30 03:04:44;;;;;;;1.83;1.63;;;;;;;8.15;100.00;98079.81;5094370;28;20204;-74
2023/12/30 03:07:10;;;;;;;2.30;1.77;;;;;;;8.05;100.00;98074.91;5094319;28;20211;-74
2023/12/30 03:09:37;;;;;;;1.73;1.63;;;;;;;8.09;100.00;98077.97;5094247;28;20227;-74
2023/12/30 03:12:04;;;;;;;1.83;1.70;;;;;;;8.13;100.00;98081.84;5094342;28;20210;-74
2023/12/30 03:14:30;;;;;;;1.77;1.43;;;;;;;8.13;100.00;98071.25;5093919;28;20641;-74
2023/12/30 03:16:57;;;;;;;1.93;1.83;;;;;;;8.05;100.00;98069.63;5094233;28;20291;-74
2023/12/30 03:19:24;;;;;;;2.53;1.60;;;;;;;8.07;100.00;98080.00;5094010;28;20258;-75
2023/12/30 03:21:50;;;;;;;1.70;1.60;;;;;;;8.10;100.00;98079.63;5093847;28;20666;-74
2023/12/30 03:24:16;;;;;;;1.50;1.40;;;;;;;8.07;100.00;98082.66;5093962;28;20211;-74
2023/12/30 03:26:43;;;;;;;1.60;1.50;;;;;;;8.08;100.00;98079.81;5094086;28;20227;-74
2023/12/30 03:29:09;;;;;;;3.13;1.80;;;;;;;8.13;100.00;98080.03;5093909;28;20229;-74
2023/12/30 03:31:35;;;;;;;1.77;1.60;;;;;;;8.13;100.00;98074.72;5094089;28;20196;-74
2023/12/30 03:34:02;;;;;;;2.20;1.33;;;;;;;8.19;100.00;98086.34;5093681;28;20558;-74
2023/12/30 03:36:28;;;;;;;2.03;1.40;;;;;;;8.12;100.00;98086.34;5093960;28;20231;-74
2023/12/30 03:38:54;;;;;;;1.50;1.40;;;;;;;8.09;100.00;98081.44;5093740;28;20204;-74
2023/12/30 03:41:21;;;;;;;1.67;1.57;;;;;;;8.08;100.00;98090.41;5094039;28;20227;-74
2023/12/30 03:43:49;;;;;;;2.27;1.30;;;;;;;8.07;100.00;98088.78;5093815;28;20593;-74
2023/12/30 03:46:15;;;;;;;2.73;1.70;;;;;;;8.03;100.00;98084.06;5093499;28;20208;-74
2023/12/30 03:48:41;;;;;;;2.03;1.60;;;;;;;7.97;100.00;98077.75;5093503;28;20211;-74
2023/12/30 03:51:08;;;;;;;2.57;1.50;;;;;;;7.95;100.00;98078.97;5093533;28;20314;-74
2023/12/30 03:53:34;;;;;;;3.20;1.37;;;;;;;7.89;100.00;98075.31;5093602;28;20211;-74
2023/12/30 03:56:00;;;;;;;2.43;1.30;;;;;;;7.89;100.00;98074.50;5093690;28;20199;-74
2023/12/30 03:58:27;;;;;;;1.87;1.40;;;;;;;7.88;100.00;98081.59;5093709;28;20207;-74
2023/12/30 04:00:53;;;;;;;5.33;1.77;;;;;;;7.87;100.00;98081.81;5093536;28;20228;-74
2023/12/30 04:03:20;;;;;;;2.60;1.77;;;;;;;7.87;100.00;98079.19;5093201;28;20210;-74
2023/12/30 04:05:46;;;;;;;1.63;1.47;;;;;;;7.86;100.00;98085.47;5093383;28;20206;-74
2023/12/30 04:08:12;;;;;;;2.90;1.43;;;;;;;7.87;100.00;98085.28;5093653;28;20214;-74
2023/12/30 04:10:39;;;;;;;4.70;1.80;;;;;;;7.92;100.00;98084.69;5093334;28;20216;-74
2023/12/30 04:13:06;;;;;;;2.77;1.50;;;;;;;7.90;100.00;98079.59;5095349;28;20216;-75
2023/12/30 04:15:32;;;;;;;4.40;1.70;;;;;;;7.90;100.00;98071.66;5097590;28;20212;-74
2023/12/30 04:17:58;;;;;;;1.70;1.60;;;;;;;7.92;100.00;98077.53;5097461;28;20208;-74
2023/12/30 04:20:25;;;;;;;2.43;1.67;;;;;;;7.89;100.00;98085.06;5097387;28;20231;-74
2023/12/30 04:22:51;;;;;;;2.03;1.70;;;;;;;7.84;100.00;98085.69;5097059;28;20750;-74
2023/12/30 04:25:17;;;;;;;3.30;1.80;;;;;;;7.82;100.00;98082.41;5097285;28;20376;-74
2023/12/30 04:27:44;;;;;;;2.33;1.53;;;;;;;7.82;100.00;98087.72;5097531;28;20210;-74
2023/12/30 04:30:11;;;;;;;3.10;1.47;;;;;;;7.79;100.00;98082.00;5096847;28;20216;-74
2023/12/30 04:32:38;;;;;;;3.10;1.67;;;;;;;7.77;100.00;98086.66;5097232;28;20206;-74
2023/12/30 04:35:05;;;;;;;3.60;1.73;;;;;;;7.79;100.00;98088.09;5096884;28;20550;-74
2023/12/30 04:37:31;;;;;;;3.23;1.87;;;;;;;7.77;100.00;98084.84;5097010;28;20206;-74
2023/12/30 04:39:57;;;;;;;2.60;1.87;;;;;;;7.75;100.00;98091.34;5096689;28;20588;-74
2023/12/30 04:42:24;;;;;;;3.23;1.50;;;;;;;7.76;100.00;98100.91;5096725;28;20208;-74
2023/12/30 04:44:50;;;;;;;3.83;1.50;;;;;;;7.76;100.00;98095.63;5096603;28;20204;-74
2023/12/30 04:47:16;;;;;;;1.43;1.33;;;;;;;7.73;100.00;98098.66;5096572;28;20666;-74
2023/12/30 04:49:43;;;;;;;2.73;1.03;;;;;;;7.76;100.00;98091.16;5096685;28;20223;-74
2023/12/30 04:52:09;;;;;;;1.60;1.30;;;;;;;7.75;100.00;98096.66;5096601;28;20202;-74
2023/12/30 04:54:35;;;;;;;1.63;1.20;;;;;;;7.80;100.00;98099.50;5096684;28;20313;-74
2023/12/30 04:57:02;;;;;;;2.73;1.30;;;;;;;7.82;100.00;98100.09;5096797;28;20206;-74
2023/12/30 04:59:28;;;;;;;4.07;1.30;;;;;;;7.80;100.00;98102.97;5096711;28;20228;-74
2023/12/30 05:01:55;;;;;;;4.03;1.40;;;;;;;7.80;100.00;98108.28;5096553;28;20223;-74
2023/12/30 05:04:21;;;;;;;1.77;1.37;;;;;;;7.88;100.00;98104.63;5096655;28;20216;-74
2023/12/30 05:06:47;;;;;;;2.67;1.60;;;;;;;7.83;100.00;98104.41;5096263;28;20753;-74
2023/12/30 05:09:14;;;;;;;1.17;1.00;;;;;;;7.87;100.00;98098.50;5096479;28;20251;-74
2023/12/30 05:11:44;;;;;;;2.00;1.27;;;;;;;7.87;100.00;98095.06;5096058;28;20204;-74
2023/12/30 05:14:12;;;;;;;1.97;1.10;;;;;;;7.90;100.00;98097.28;5096185;28;20196;-74
2023/12/30 05:16:45;;;;;;;2.53;1.50;;;;;;;7.94;100.00;98099.34;5096237;28;20219;-74
2023/12/30 05:19:12;;;;;;;1.60;1.03;;;;;;;7.94;100.00;98091.41;5095852;28;20220;-74
2023/12/30 05:21:39;;;;;;;1.87;1.10;;;;;;;7.95;100.00;98098.31;5096228;28;20226;-74
2023/12/30 05:24:06;;;;;;;1.20;1.10;;;;;;;7.93;100.00;98094.25;5094870;28;20200;-74
2023/12/30 05:26:33;;;;;;;0.90;0.90;;;;;;;8.01;100.00;98094.06;5096239;28;20568;-74
2023/12/30 05:28:59;;;;;;;1.57;0.80;;;;;;;8.02;100.00;98099.16;5095755;28;20211;-74
2023/12/30 05:31:25;;;;;;;1.93;0.83;;;;;;;8.00;100.00;98097.69;5095578;28;20203;-74
2023/12/30 05:33:52;;;;;;;0.80;0.70;;;;;;;7.91;100.00;98096.25;5095611;28;20667;-74
2023/12/30 05:36:18;;;;;;;1.67;0.90;;;;;;;7.81;100.00;98086.09;5095538;28;20215;-74
2023/12/30 05:38:45;;;;;;;1.00;0.90;;;;;;;7.90;100.00;98087.53;5095594;28;20210;-74
2023/12/30 05:41:12;;;;;;;2.80;1.00;;;;;;;7.85;100.00;98084.66;5095531;28;20216;-74
2023/12/30 05:43:40;;;;;;;1.83;1.00;;;;;;;7.77;100.00;98087.50;5095665;28;20210;-74
2023/12/30 05:46:07;;;;;;;2.37;1.00;;;;;;;7.71;100.00;98093.59;5095325;28;20210;-74
2023/12/30 05:48:33;;;;;;;1.93;0.90;;;;;;;7.70;100.00;98088.50;5095149;28;20586;-74
2023/12/30 05:50:59;;;;;;;3.13;1.10;;;;;;;7.74;100.00;98092.38;5095560;28;20609;-74
2023/12/30 05:53:27;;;;;;;2.73;1.00;;;;;;;7.75;100.00;98089.53;5095083;28;20544;-74
2023/12/30 05:55:54;;;;;;;1.37;1.00;;;;;;;7.80;100.00;98083.63;5095362;28;20662;-74
2023/12/30 05:58:20;;;;;;;0.80;0.80;;;;;;;7.83;100.00;98086.69;5095254;28;20685;-74
2023/12/30 06:00:46;;;;;;;1.20;1.03;;;;;;;7.85;100.00;98094.44;5094932;28;20686;-74
2023/12/30 06:03:13;;;;;;;1.13;0.90;;;;;;;7.90;100.00;98092.00;5095038;28;20252;-74
2023/12/30 06:05:39;;;;;;;1.10;0.97;;;;;;;7.85;100.00;98089.97;5095317;28;20208;-74
2023/12/30 06:08:06;;;;;;;2.03;0.80;;;;;;;7.84;100.00;98095.44;5095158;28;20215;-74
2023/12/30 06:10:32;;;;;;;1.77;0.80;;;;;;;7.83;100.00;98099.91;5095180;28;20216;-74
2023/12/30 06:12:58;;;;;;;2.07;1.00;;;;;;;7.79;100.00;98096.03;5095556;28;20211;-74
2023/12/30 06:15:25;;;;;;;1.13;0.83;;;;;;;7.85;100.00;98105.00;5094936;28;20204;-74
2023/12/30 06:17:52;;;;;;;1.23;0.67;;;;;;;7.90;100.00;98113.16;5095251;28;20215;-74
2023/12/30 06:20:19;;;;;;;2.37;0.90;;;;;;;8.00;100.00;98113.59;5095055;28;20230;-74
2023/12/30 06:22:45;;;;;;;2.47;1.20;;;;;;;8.00;100.00;98109.13;5094867;28;20290;-74
2023/12/30 06:25:11;;;;;;;1.43;0.70;;;;;;;8.05;100.00;98108.53;5095298;28;20203;-74
2023/12/30 06:27:38;;;;;;;1.23;0.80;;;;;;;8.03;100.00;98108.72;5094691;28;20693;-74
2023/12/30 06:30:05;;;;;;;1.57;0.63;;;;;;;8.07;100.00;98115.25;5094842;28;20230;-74
2023/12/30 06:32:32;;;;;;;3.13;0.70;;;;;;;8.02;100.00;98111.56;5094919;28;20209;-74
2023/12/30 06:34:58;;;;;;;2.03;0.70;;;;;;;7.99;100.00;98114.63;5094486;28;20204;-74
2023/12/30 06:37:25;;;;;;;1.70;0.90;;;;;;;7.94;100.00;98109.94;5094731;28;20211;-74
2023/12/30 06:39:51;;;;;;;0.93;0.60;;;;;;;7.93;100.00;98118.06;5094713;28;20220;-74
2023/12/30 06:42:17;;;;;;;1.23;0.60;;;;;;;7.99;100.00;98122.56;5094511;28;20234;-74
2023/12/30 06:44:44;;;;;;;2.10;0.97;;;;;;;7.96;100.00;98123.78;5094734;28;20207;-74
2023/12/30 06:47:12;;;;;;;2.60;0.73;;;;;;;8.00;100.00;98132.13;5094775;28;20200;-74
2023/12/30 06:49:40;;;;;;;2.80;0.80;;;;;;;7.99;100.00;98139.25;5094458;28;20231;-74
2023/12/30 06:52:07;;;;;;;2.77;0.60;;;;;;;8.02;100.00;98130.09;5094199;28;20199;-74
2023/12/30 06:54:34;;;;;;;2.67;1.00;;;;;;;8.01;100.00;98134.56;5094419;28;20224;-74
2023/12/30 06:57:00;;;;;;;0.60;0.60;;;;;;;8.00;100.00;98137.41;5094452;28;20212;-74
2023/12/30 06:59:27;;;;;;;1.90;0.90;;;;;;;7.97;100.00;98138.63;5094210;28;20227;-74
2023/12/30 07:01:53;;;;;;;1.03;0.70;;;;;;;7.92;100.00;98132.31;5094526;28;20223;-74
2023/12/30 07:04:21;;;;;;;0.70;0.70;;;;;;;7.98;100.00;98137.63;5094137;28;20210;-74
2023/12/30 07:06:47;;;;;;;1.53;0.77;;;;;;;8.03;100.00;98151.09;5093807;28;20671;-74
2023/12/30 07:09:14;;;;;;;0.70;0.70;;;;;;;7.95;100.00;98145.97;5093978;28;20219;-74
2023/12/30 07:11:40;;;;;;;1.80;0.70;;;;;;;7.89;100.00;98148.59;5093821;28;20554;-74
2023/12/30 07:14:06;;;;;;;1.83;0.97;;;;;;;7.97;100.00;98148.44;5094098;28;20603;-74
2023/12/30 07:16:33;;;;;;;4.27;1.00;;;;;;;8.02;100.00;98149.47;5094070;28;20210;-74
2023/12/30 07:18:59;;;;;;;1.30;0.90;;;;;;;8.06;100.00;98152.50;5094043;28;20208;-74
2023/12/30 07:21:25;;;;;;;1.33;0.70;;;;;;;7.94;100.00;98151.47;5093716;28;20220;-74
2023/12/30 07:23:52;;;;;;;1.80;1.00;;;;;;;7.94;100.00;98154.94;5094879;28;20495;-74
2023/12/30 07:26:18;;;;;;;1.53;0.80;;;;;;;7.94;100.00;98154.09;5093802;28;20230;-74
2023/12/30 07:28:44;;;;;;;1.60;0.80;;;;;;;7.87;100.00;98150.63;5075987;28;20206;-74
2023/12/30 07:31:11;;;;;;;1.80;0.77;;;;;;;7.90;100.00;98158.16;5093969;28;20200;-74
2023/12/30 07:33:37;;;;;;;2.10;1.07;;;;;;;7.87;100.00;98150.63;5093854;28;20206;-74
2023/12/30 07:36:07;;;;;;;4.07;0.90;;;;;;;7.91;100.00;98154.50;5093469;28;20210;-74
2023/12/30 07:38:34;;;;;;;1.70;0.80;;;;;;;7.96;100.00;98150.25;5094038;28;20204;-74
2023/12/30 07:41:01;;;;;;;0.70;0.70;;;;;;;7.91;100.00;98150.03;5093475;28;20318;-74
2023/12/30 07:43:27;;;;;;;2.13;0.90;;;;;;;7.99;100.00;98157.78;5093734;28;20204;-74
2023/12/30 07:45:53;;;;;;;1.90;1.20;;;;;;;8.06;100.00;98160.47;5093422;28;20204;-74
2023/12/30 07:48:20;;;;;;;2.80;1.10;;;;;;;8.07;100.00;98162.91;5092414;28;20563;-74
2023/12/30 07:50:46;;;;;;;0.83;0.80;;;;;;;8.15;100.00;98160.06;5093542;28;20226;-75
2023/12/30 07:53:12;;;;;;;2.33;0.90;;;;;;;8.19;100.00;98163.13;5093613;28;20592;-74
2023/12/30 07:55:39;;;;;;;1.80;1.10;;;;;;;8.22;100.00;98162.75;5093575;28;20202;-73
2023/12/30 07:58:05;;;;;;;4.03;1.10;;;;;;;8.27;100.00;98173.56;5093635;28;20200;-73
2023/12/30 08:00:32;;;;;;;2.50;1.03;;;;;;;8.30;100.00;98163.41;5093479;28;20227;-73
2023/12/30 08:02:59;;;;;;;1.97;0.97;;;;;;;8.31;100.00;98167.66;5093290;28;20224;-73
2023/12/30 08:05:25;;;;;;;3.37;1.53;;;;;;;8.35;100.00;98173.38;5093419;28;20215;-73
2023/12/30 08:07:51;;;;;;;1.30;1.20;;;;;;;8.39;100.00;98169.31;5093498;28;20200;-73
2023/12/30 08:10:18;;;;;;;3.60;1.27;;;;;;;8.45;100.00;98171.13;5093375;28;20227;-73
2023/12/30 08:12:44;;;;;;;2.50;1.10;;;;;;;8.52;100.00;98169.31;5093480;28;20208;-73
2023/12/30 08:15:11;;;;;;;1.60;1.27;;;;;;;8.61;100.00;98176.03;5093276;28;20204;-73
2023/12/30 08:17:37;;;;;;;2.10;0.97;;;;;;;8.63;100.00;98180.13;5093130;28;20206;-73
2023/12/30 08:20:05;;;;;;;1.63;0.90;;;;;;;8.70;100.00;98174.81;5093141;28;20231;-73
2023/12/30 08:22:32;;;;;;;2.13;1.10;;;;;;;8.71;100.00;98187.06;5093123;28;20712;-73
2023/12/30 08:24:58;;;;;;;2.43;0.90;;;;;;;8.73;100.00;98187.69;5092985;28;20745;-73
2023/12/30 08:27:25;;;;;;;1.27;1.17;;;;;;;8.78;100.00;98183.38;5093130;28;20666;-73
2023/12/30 08:29:51;;;;;;;1.70;0.93;;;;;;;8.80;100.00;98191.97;5093051;28;20220;-73
2023/12/30 08:32:18;;;;;;;1.23;0.93;;;;;;;8.84;100.00;98190.53;5092880;28;20675;-73
2023/12/30 08:34:44;;;;;;;1.43;0.87;;;;;;;8.88;100.00;98194.38;5093070;28;20206;-73
2023/12/30 08:37:10;;;;;;;1.63;0.80;;;;;;;8.93;100.00;98186.66;5093041;28;20204;-73
2023/12/30 08:39:38;;;;;;;0.80;0.80;;;;;;;9.01;100.00;98198.88;5092981;28;20311;-73
2023/12/30 08:42:08;;;;;;;1.13;0.70;;;;;;;9.00;100.00;98197.25;5093010;28;20224;-73
2023/12/30 08:44:37;;;;;;;3.73;1.00;;;;;;;9.00;100.00;98189.31;5093042;28;20212;-73
2023/12/30 08:47:04;;;;;;;1.13;0.90;;;;;;;9.05;100.00;98192.16;5092637;28;20716;-73
2023/12/30 08:49:30;;;;;;;1.90;0.80;;;;;;;9.06;100.00;98191.91;5092710;28;20236;-73
2023/12/30 08:51:57;;;;;;;1.27;0.80;;;;;;;9.04;100.00;98196.63;5092890;28;20199;-73
2023/12/30 08:54:23;;;;;;;1.33;0.87;;;;;;;9.01;100.00;98196.22;5093066;28;20204;-73
2023/12/30 08:56:53;;;;;;;1.23;0.93;;;;;;;9.04;100.00;98203.75;5092597;28;20214;-73
2023/12/30 08:59:20;;;;;;;1.07;0.80;;;;;;;9.14;100.00;98198.88;5094339;28;20314;-73
2023/12/30 09:01:46;;;;;;;1.60;0.80;;;;;;;9.16;100.00;98191.50;5096302;28;20224;-73
2023/12/30 09:04:13;;;;;;;1.00;0.90;;;;;;;9.20;100.00;98200.69;5096302;28;20204;-73
2023/12/30 09:06:39;;;;;;;1.63;1.20;;;;;;;9.27;100.00;98198.81;5096243;28;20207;-73
2023/12/30 09:09:06;;;;;;;1.13;0.90;;;;;;;9.26;100.00;98199.84;5096281;28;20224;-73
2023/12/30 09:11:37;;;;;;;1.17;0.97;;;;;;;9.27;100.00;98209.44;5096029;28;20196;-73
2023/12/30 09:14:04;;;;;;;1.10;1.00;;;;;;;9.36;100.00;98216.97;5096576;28;20192;-73
2023/12/30 09:16:30;;;;;;;1.17;0.90;;;;;;;9.34;100.00;98212.91;5096218;28;20526;-74
2023/12/30 09:18:56;;;;;;;1.60;0.80;;;;;;;9.26;100.00;98215.75;5096080;28;20200;-73
2023/12/30 09:21:23;;;;;;;1.70;0.97;;;;;;;9.20;100.00;98220.09;5096200;28;20228;-73
2023/12/30 09:23:50;;;;;;;1.37;1.07;;;;;;;9.19;100.00;98226.38;5096049;28;20392;-73
2023/12/30 09:26:17;;;;;;;0.93;0.83;;;;;;;9.15;100.00;98222.50;5095993;28;20200;-73
2023/12/30 09:28:43;;;;;;;1.53;1.00;;;;;;;9.13;100.00;98219.25;5095800;28;20574;-73
2023/12/30 09:31:10;;;;;;;1.03;0.77;;;;;;;9.09;100.00;98215.38;5095749;28;20211;-73
2023/12/30 09:33:36;;;;;;;0.67;0.53;;;;;;;9.16;100.00;98215.38;5095598;28;20256;-73
2023/12/30 09:36:04;;;;;;;1.63;0.83;;;;;;;9.16;100.00;98215.38;5096479;28;20208;-73
2023/12/30 09:38:31;;;;;;;0.80;0.77;;;;;;;9.18;100.00;98221.28;5095757;28;20215;-73
2023/12/30 09:40:57;;;;;;;1.10;1.00;;;;;;;9.23;100.00;98219.66;5095590;28;20223;-73
2023/12/30 09:43:26;;;;;;;1.10;1.00;;;;;;;9.28;100.00;98216.41;5095555;28;20595;-73
2023/12/30 09:45:54;;;;;;;3.03;0.80;;;;;;;9.35;100.00;98220.66;5095609;28;20207;-73
2023/12/30 09:48:21;;;;;;;2.50;0.90;;;;;;;9.34;100.00;98212.91;5095080;28;20270;-73
2023/12/30 09:50:50;;;;;;;1.03;0.73;;;;;;;9.27;100.00;98214.75;5095450;28;20220;-73
2023/12/30 09:53:16;;;;;;;1.03;0.90;;;;;;;9.32;100.00;98214.97;5095145;28;20200;-73
2023/12/30 09:55:47;;;;;;;1.03;0.70;;;;;;;9.33;100.00;98214.72;5095393;28;20210;-73
2023/12/30 09:58:15;;;;;;;0.63;0.50;;;;;;;9.41;100.00;98214.50;5095102;28;20631;-73
2023/12/30 10:00:42;;;;;;;2.27;0.90;;;;;;;9.48;100.00;98209.19;5095478;28;20646;-73
2023/12/30 10:03:10;;;;;;;0.80;0.60;;;;;;;9.64;100.00;98219.38;5095023;28;20223;-73
2023/12/30 10:05:36;;;;;;;0.50;0.50;;;;;;;9.84;100.00;98217.47;5095289;28;20208;-73
2023/12/30 10:08:04;;;;;;;0.60;0.60;;;;;;;9.86;100.00;98226.03;5095177;28;20574;-73
2023/12/30 10:10:43;;;;;;;1.07;0.60;;;;;;;9.89;100.00;98229.09;5094011;28;20299;-73
2023/12/30 10:13:10;;;;;;;1.03;0.60;;;;;;;9.95;100.00;98235.38;5094837;28;20635;-73
2023/12/30 10:15:36;;;;;;;0.40;0.40;;;;;;;9.98;100.00;98230.47;5094977;28;20203;-73
2023/12/30 10:18:04;;;;;;;1.20;0.80;;;;;;;10.00;100.00;98232.94;5094726;28;20581;-73
2023/12/30 10:20:31;;;;;;;0.70;0.60;;;;;;;10.01;100.00;98230.03;5094687;28;20323;-75
2023/12/30 10:22:57;;;;;;;2.50;0.97;;;;;;;10.00;100.00;98222.31;5094825;28;20230;-73
2023/12/30 10:25:23;;;;;;;1.13;0.70;;;;;;;10.08;100.00;98233.53;5094736;28;20211;-74
2023/12/30 10:27:50;;;;;;;1.27;0.57;;;;;;;10.11;100.00;98238.44;5094328;28;20208;-73
2023/12/30 10:30:19;;;;;;;1.00;0.63;;;;;;;10.14;100.00;98237.97;5095035;28;20220;-73
2023/12/30 10:32:46;;;;;;;1.43;0.50;;;;;;;10.13;100.00;98238.19;5094828;28;20196;-73
2023/12/30 10:35:15;;;;;;;2.00;0.50;;;;;;;10.11;100.00;98226.97;5094795;28;20576;-74
2023/12/30 10:37:42;;;;;;;1.20;0.70;;;;;;;10.16;100.00;98235.94;5094767;28;20208;-74
2023/12/30 10:40:11;;;;;;;0.90;0.50;;;;;;;10.11;100.00;98230.47;5094318;28;20227;-74
2023/12/30 10:42:41;;;;;;;2.37;0.90;;;;;;;10.16;100.00;98229.81;5094485;28;20220;-74
2023/12/30 10:45:08;;;;;;;1.43;0.67;;;;;;;10.15;100.00;98222.88;5094508;28;20208;-74
2023/12/30 10:47:39;;;;;;;0.50;0.50;;;;;;;10.08;100.00;98230.03;5094366;28;20211;-74
2023/12/30 10:50:09;;;;;;;0.50;0.40;;;;;;;10.09;100.00;98221.06;5094346;28;20232;-74
2023/12/30 10:52:44;;;;;;;0.93;0.50;;;;;;;10.12;100.00;98217.97;5094121;28;20658;-74
2023/12/30 10:55:14;;;;;;;0.60;0.50;;;;;;;10.25;100.00;98215.25;5094358;28;20195;-74
2023/12/30 10:57:48;;;;;;;1.93;0.67;;;;;;;10.25;100.00;98209.94;5094199;28;20259;-74
2023/12/30 11:00:21;;;;;;;0.80;0.60;;;;;;;10.29;100.00;98216.47;5094167;28;20224;-74
2023/12/30 11:02:48;;;;;;;0.50;0.50;;;;;;;10.31;100.00;98201.94;5094551;28;20212;-74
2023/12/30 11:05:26;;;;;;;0.43;0.43;;;;;;;10.31;100.00;98207.25;5094090;28;20204;-74
2023/12/30 11:07:52;;;;;;;1.93;0.70;;;;;;;10.40;100.00;98213.94;5094217;28;20188;-74
2023/12/30 11:10:21;;;;;;;0.73;0.60;;;;;;;10.38;100.00;98210.69;5075651;28;20228;-74
2023/12/30 11:12:48;;;;;;;0.57;0.50;;;;;;;10.48;100.00;98203.06;5093937;28;20196;-74
2023/12/30 11:15:23;;;;;;;1.00;0.40;;;;;;;10.43;100.00;98212.69;5094033;28;20204;-74
2023/12/30 11:17:49;;;;;;;1.37;0.60;;;;;;;10.53;100.00;98207.72;5093954;28;20200;-74
2023/12/30 11:20:25;;;;;;;1.33;0.70;;;;;;;10.50;100.00;98210.81;5093804;28;20224;-74
2023/12/30 11:22:54;;;;;;;0.80;0.50;;;;;;;10.57;100.00;98198.28;5093786;28;20223;-74
2023/12/30 11:25:21;;;;;;;1.20;0.40;;;;;;;10.55;100.00;98190.53;5093477;28;20208;-74
2023/12/30 11:27:54;;;;;;;0.53;0.50;;;;;;;10.55;100.00;98190.53;5093826;28;20210;-74
2023/12/30 11:30:27;;;;;;;0.73;0.50;;;;;;;10.49;100.00;98178.09;5093559;28;20228;-74